createdAt,value
2017-10-17T00:02:13.612Z,18.63
2017-10-17T00:04:41.961Z,26.63
2017-10-17T00:07:09.452Z,24.67
2017-10-17T00:09:36.984Z,19.10
2017-10-17T00:12:04.508Z,20.73
2017-10-17T00:14:32.032Z,19.77
2017-10-17T00:16:59.556Z,19.00
2017-10-17T00:19:27.070Z,18.87
2017-10-17T00:21:54.596Z,19.27
2017-10-17T00:24:22.868Z,16.23
2017-10-17T00:26:51.164Z,15.43
2017-10-17T00:29:18.678Z,19.00
2017-10-17T00:31:46.197Z,23.53
2017-10-17T00:34:13.734Z,24.87
2017-10-17T00:36:41.243Z,18.97
2017-10-17T00:39:08.783Z,15.90
2017-10-17T00:41:36.281Z,15.43
2017-10-17T00:44:04.580Z,18.90
2017-10-17T00:46:32.220Z,17.90
2017-10-17T00:49:00.501Z,16.87
2017-10-17T00:51:28.997Z,14.40
2017-10-17T00:53:58.183Z,14.97
2017-10-17T00:56:25.705Z,15.50
2017-10-17T00:58:53.218Z,15.93
2017-10-17T01:01:20.776Z,15.23
2017-10-17T01:03:48.311Z,15.20
2017-10-17T01:06:16.605Z,16.03
2017-10-17T01:08:44.138Z,18.50
2017-10-17T01:11:12.496Z,15.37
2017-10-17T01:13:40.041Z,18.03
2017-10-17T01:16:07.549Z,14.70
2017-10-17T01:18:35.057Z,15.80
2017-10-17T01:21:03.372Z,16.43
2017-10-17T01:23:34.464Z,16.30
2017-10-17T01:26:09.659Z,14.47
2017-10-17T01:28:37.174Z,14.10
2017-10-17T01:31:04.677Z,23.00
2017-10-17T01:33:32.244Z,13.20
2017-10-17T01:35:59.776Z,11.67
2017-10-17T01:38:31.005Z,14.67
2017-10-17T01:40:59.288Z,14.53
2017-10-17T01:43:28.407Z,14.00
2017-10-17T01:45:56.689Z,13.70
2017-10-17T01:48:25.781Z,15.10
2017-10-17T01:50:54.106Z,14.93
2017-10-17T01:53:24.110Z,13.57
2017-10-17T01:55:51.617Z,13.63
2017-10-17T01:58:23.716Z,13.97
2017-10-17T02:00:51.279Z,15.20
2017-10-17T02:03:18.817Z,18.73
2017-10-17T02:05:46.345Z,16.53
2017-10-17T02:08:14.623Z,17.27
2017-10-17T02:11:01.681Z,18.30
2017-10-17T02:13:29.193Z,18.07
2017-10-17T02:15:57.516Z,19.77
2017-10-17T02:18:26.938Z,17.40
2017-10-17T02:20:58.087Z,20.40
2017-10-17T02:23:28.536Z,20.87
2017-10-17T02:26:02.548Z,22.67
2017-10-17T02:28:44.541Z,24.57
2017-10-17T02:31:12.826Z,19.57
2017-10-17T02:33:43.756Z,23.63
2017-10-17T02:36:12.041Z,19.60
2017-10-17T02:38:39.650Z,19.57
2017-10-17T02:41:07.181Z,20.93
2017-10-17T02:43:39.332Z,20.67
2017-10-17T02:46:06.840Z,22.37
2017-10-17T02:48:47.834Z,21.97
2017-10-17T02:51:15.441Z,24.73
2017-10-17T02:53:42.936Z,21.27
2017-10-17T02:56:10.469Z,22.37
2017-10-17T02:58:37.979Z,19.10
2017-10-17T03:01:08.925Z,20.53
2017-10-17T03:03:38.931Z,19.33
2017-10-17T03:06:07.353Z,25.60
2017-10-17T03:08:34.899Z,20.07
2017-10-17T03:11:02.400Z,18.73
2017-10-17T03:13:32.814Z,19.17
2017-10-17T03:16:01.157Z,17.30
2017-10-17T03:18:29.601Z,19.57
2017-10-17T03:21:00.628Z,19.67
2017-10-17T03:23:28.135Z,22.10
2017-10-17T03:25:55.664Z,20.00
2017-10-17T03:28:24.740Z,23.17
2017-10-17T03:30:53.901Z,22.43
2017-10-17T03:33:31.320Z,22.57
2017-10-17T03:38:54.172Z,19.23
2017-10-17T03:41:38.541Z,21.23
2017-10-17T03:47:32.221Z,18.73
2017-10-17T03:50:00.679Z,21.10
2017-10-17T03:52:31.668Z,20.30
2017-10-17T03:54:59.932Z,19.93
2017-10-17T03:57:30.367Z,19.77
2017-10-17T03:59:59.617Z,20.33
2017-10-17T04:02:27.129Z,16.30
2017-10-17T04:05:14.865Z,19.10
2017-10-17T04:07:50.876Z,18.17
2017-10-17T04:10:29.117Z,23.20
2017-10-17T04:13:05.929Z,18.93
2017-10-17T04:15:33.479Z,19.90
2017-10-17T04:18:03.656Z,22.40
2017-10-17T04:20:40.840Z,18.37
2017-10-17T04:23:30.944Z,21.43
2017-10-17T04:29:18.857Z,20.30
2017-10-17T04:31:47.160Z,19.83
2017-10-17T04:34:22.159Z,24.10
2017-10-17T04:37:00.475Z,18.80
2017-10-17T04:39:28.035Z,21.67
2017-10-17T04:48:20.622Z,20.50
2017-10-17T04:54:09.511Z,20.97
2017-10-17T04:56:37.018Z,18.20
2017-10-17T04:59:15.309Z,24.80
2017-10-17T05:01:45.076Z,21.17
2017-10-17T05:04:23.306Z,23.40
2017-10-17T05:06:52.412Z,19.77
2017-10-17T05:09:27.113Z,16.73
2017-10-17T05:11:54.648Z,19.87
2017-10-17T05:14:28.005Z,17.57
2017-10-17T05:16:56.277Z,18.43
2017-10-17T05:22:39.761Z,19.50
2017-10-17T05:25:12.124Z,21.60
2017-10-17T05:30:54.545Z,15.30
2017-10-17T05:36:32.130Z,18.10
2017-10-17T05:39:00.399Z,15.40
2017-10-17T05:41:28.710Z,17.90
2017-10-17T05:46:55.854Z,18.53
2017-10-17T05:49:29.659Z,14.10
2017-10-17T05:51:57.934Z,18.10
2017-10-17T05:54:25.457Z,18.03
2017-10-17T05:56:52.968Z,12.57
2017-10-17T05:59:20.509Z,14.63
2017-10-17T06:01:48.773Z,13.97
2017-10-17T06:04:17.069Z,16.93
2017-10-17T06:06:44.575Z,18.30
2017-10-17T06:09:12.070Z,16.97
2017-10-17T06:11:40.370Z,14.80
2017-10-17T06:16:53.780Z,18.00
2017-10-17T06:19:21.291Z,21.60
2017-10-17T06:21:49.589Z,26.07
2017-10-17T06:24:17.111Z,16.03
2017-10-17T06:26:44.703Z,15.97
2017-10-17T06:29:12.232Z,14.83
2017-10-17T06:31:39.737Z,15.37
2017-10-17T06:34:07.258Z,15.43
2017-10-17T06:36:35.548Z,21.27
2017-10-17T06:39:03.818Z,16.23
2017-10-17T06:41:32.074Z,16.20
2017-10-17T06:43:59.612Z,15.30
2017-10-17T06:46:27.105Z,20.10
2017-10-17T06:48:55.394Z,16.77
2017-10-17T06:51:22.926Z,17.07
2017-10-17T06:53:51.225Z,19.23
2017-10-17T06:56:18.742Z,18.23
2017-10-17T06:58:46.244Z,19.23
2017-10-17T07:01:13.764Z,17.43
2017-10-17T07:03:41.260Z,20.83
2017-10-17T07:06:08.830Z,19.50
2017-10-17T07:08:36.335Z,14.90
2017-10-17T07:11:03.852Z,21.00
2017-10-17T07:13:31.352Z,24.87
2017-10-17T07:15:59.008Z,19.40
2017-10-17T07:18:26.510Z,19.93
2017-10-17T07:20:54.004Z,18.87
2017-10-17T07:23:21.541Z,18.87
2017-10-17T07:25:49.045Z,22.30
2017-10-17T07:28:16.546Z,18.23
2017-10-17T07:30:44.074Z,22.70
2017-10-17T07:33:12.380Z,23.67
2017-10-17T07:35:39.929Z,19.13
2017-10-17T07:38:07.442Z,19.53
2017-10-17T07:40:34.975Z,22.03
2017-10-17T07:43:02.483Z,18.13
2017-10-17T07:45:30.774Z,23.93
2017-10-17T07:47:58.335Z,17.37
2017-10-17T07:50:25.858Z,17.70
2017-10-17T07:52:53.372Z,20.60
2017-10-17T07:55:20.929Z,15.83
2017-10-17T07:57:48.443Z,21.50
2017-10-17T08:00:16.716Z,16.97
2017-10-17T08:02:44.997Z,15.17
2017-10-17T08:05:13.285Z,15.87
2017-10-17T08:07:41.557Z,16.30
2017-10-17T08:10:09.837Z,15.47
2017-10-17T08:12:38.098Z,23.30
2017-10-17T08:15:06.387Z,16.83
2017-10-17T08:17:34.680Z,17.53
2017-10-17T08:20:02.201Z,18.87
2017-10-17T08:22:30.495Z,18.23
2017-10-17T08:24:58.012Z,15.30
2017-10-17T08:27:25.540Z,15.03
2017-10-17T08:29:53.044Z,13.23
2017-10-17T08:32:20.640Z,13.33
2017-10-17T08:34:48.142Z,18.87
2017-10-17T08:37:15.670Z,12.23
2017-10-17T08:39:43.178Z,13.80
2017-10-17T08:42:10.771Z,11.47
2017-10-17T08:44:38.285Z,14.73
2017-10-17T08:47:05.888Z,13.50
2017-10-17T08:49:33.416Z,13.60
2017-10-17T08:52:01.684Z,11.57
2017-10-17T08:54:29.208Z,11.83
2017-10-17T08:56:56.760Z,12.87
2017-10-17T08:59:24.304Z,11.37
2017-10-17T09:01:51.823Z,10.57
2017-10-17T09:04:20.094Z,11.80
2017-10-17T09:06:47.688Z,11.50
2017-10-17T09:09:15.182Z,13.50
2017-10-17T09:11:42.700Z,10.17
2017-10-17T09:14:10.207Z,13.53
2017-10-17T09:16:37.733Z,11.60
2017-10-17T09:19:05.253Z,13.03
2017-10-17T09:21:33.523Z,10.53
2017-10-17T09:24:01.814Z,10.63
2017-10-17T09:26:29.322Z,11.50
2017-10-17T09:28:56.829Z,12.00
2017-10-17T09:31:24.349Z,10.97
2017-10-17T09:33:52.632Z,10.70
2017-10-17T09:36:20.161Z,10.70
2017-10-17T09:38:47.661Z,11.33
2017-10-17T09:41:15.931Z,10.23
2017-10-17T09:43:44.239Z,16.03
2017-10-17T09:46:11.759Z,11.73
2017-10-17T09:48:39.255Z,10.50
2017-10-17T09:51:06.781Z,13.47
2017-10-17T09:53:35.075Z,11.23
2017-10-17T09:56:02.568Z,9.87
2017-10-17T09:58:30.090Z,10.03
2017-10-17T10:00:58.372Z,10.30
2017-10-17T10:03:26.434Z,12.07
2017-10-17T10:05:54.702Z,10.10
2017-10-17T10:08:22.977Z,9.17
2017-10-17T10:10:51.285Z,10.93
2017-10-17T10:13:18.788Z,8.80
2017-10-17T10:15:46.297Z,11.43
2017-10-17T10:18:13.800Z,12.00
2017-10-17T10:20:41.321Z,10.90
2017-10-17T10:23:08.822Z,11.13
2017-10-17T10:25:36.344Z,11.17
2017-10-17T10:28:03.858Z,14.17
2017-10-17T10:30:32.134Z,10.53
2017-10-17T10:33:00.416Z,10.83
2017-10-17T10:35:28.688Z,12.93
2017-10-17T10:37:56.959Z,11.03
2017-10-17T10:40:24.528Z,10.40
2017-10-17T10:42:52.057Z,10.83
2017-10-17T10:45:20.358Z,13.97
2017-10-17T10:47:47.858Z,11.30
2017-10-17T10:50:15.386Z,9.43
2017-10-17T10:52:42.893Z,14.90
2017-10-17T10:55:10.425Z,10.77
2017-10-17T10:57:37.933Z,9.63
2017-10-17T11:00:06.208Z,11.00
2017-10-17T11:02:34.506Z,10.70
2017-10-17T11:05:02.004Z,9.40
2017-10-17T11:07:29.530Z,11.23
2017-10-17T11:09:57.077Z,10.97
2017-10-17T11:12:24.588Z,12.17
2017-10-17T11:14:52.094Z,15.40
2017-10-17T11:17:19.628Z,12.07
2017-10-17T11:19:47.916Z,11.33
2017-10-17T11:22:15.421Z,9.87
2017-10-17T11:24:42.952Z,13.07
2017-10-17T11:27:10.458Z,18.10
2017-10-17T11:29:37.977Z,13.40
2017-10-17T11:32:05.478Z,14.53
2017-10-17T11:34:33.027Z,8.20
2017-10-17T11:37:00.524Z,8.57
2017-10-17T11:39:28.062Z,16.03
2017-10-17T11:42:08.139Z,8.67
2017-10-17T11:44:35.679Z,12.30
2017-10-17T11:47:03.210Z,9.37
2017-10-17T11:49:30.743Z,9.07
2017-10-17T11:51:58.268Z,8.70
2017-10-17T11:54:25.773Z,12.33
2017-10-17T11:56:53.352Z,9.73
2017-10-17T11:59:21.617Z,9.10
2017-10-17T12:01:49.128Z,12.30
2017-10-17T12:04:16.652Z,8.30
2017-10-17T12:06:44.928Z,10.83
2017-10-17T12:09:13.208Z,8.83
2017-10-17T12:11:41.484Z,9.47
2017-10-17T12:14:09.780Z,9.43
2017-10-17T12:16:37.297Z,14.43
2017-10-17T12:19:04.810Z,8.27
2017-10-17T12:21:32.305Z,7.50
2017-10-17T12:23:59.832Z,7.33
2017-10-17T12:26:27.343Z,11.93
2017-10-17T12:28:54.846Z,8.67
2017-10-17T12:31:22.367Z,10.00
2017-10-17T12:33:49.888Z,14.17
2017-10-17T12:36:17.380Z,9.33
2017-10-17T12:38:44.917Z,15.60
2017-10-17T12:41:12.431Z,11.50
2017-10-17T12:43:39.956Z,13.43
2017-10-17T12:46:07.489Z,8.90
2017-10-17T12:48:34.997Z,11.50
2017-10-17T12:51:02.534Z,11.20
2017-10-17T12:53:30.033Z,8.97
2017-10-17T12:55:57.522Z,9.80
2017-10-17T12:58:25.816Z,10.77
2017-10-17T13:00:53.373Z,6.97
2017-10-17T13:03:21.672Z,7.13
2017-10-17T13:05:49.182Z,7.17
2017-10-17T13:08:17.473Z,11.43
2017-10-17T13:10:45.777Z,8.43
2017-10-17T13:13:13.301Z,7.43
2017-10-17T13:15:41.569Z,11.33
2017-10-17T13:18:09.080Z,7.73
2017-10-17T13:20:36.611Z,7.77
2017-10-17T13:23:04.129Z,11.77
2017-10-17T13:25:31.687Z,7.80
2017-10-17T13:27:59.187Z,7.77
2017-10-17T13:30:26.725Z,8.13
2017-10-17T13:32:55.025Z,7.53
2017-10-17T13:35:22.550Z,8.17
2017-10-17T13:37:50.081Z,7.40
2017-10-17T13:40:17.590Z,7.23
2017-10-17T13:42:45.113Z,8.07
2017-10-17T13:45:12.600Z,8.90
2017-10-17T13:47:40.945Z,8.07
2017-10-17T13:50:08.444Z,10.33
2017-10-17T13:52:35.969Z,8.83
2017-10-17T13:55:03.473Z,7.90
2017-10-17T13:57:31.039Z,7.40
2017-10-17T13:59:58.566Z,7.07
2017-10-17T14:02:26.863Z,6.17
2017-10-17T14:04:54.393Z,11.03
2017-10-17T14:07:22.686Z,10.70
2017-10-17T14:09:50.213Z,6.90
2017-10-17T14:12:17.718Z,6.80
2017-10-17T14:14:45.238Z,9.83
2017-10-17T14:17:13.517Z,10.20
2017-10-17T14:19:41.830Z,7.33
2017-10-17T14:22:09.358Z,8.03
2017-10-17T14:24:36.937Z,9.93
2017-10-17T14:27:04.453Z,9.10
2017-10-17T14:29:32.727Z,9.70
2017-10-17T14:32:01.021Z,6.93
2017-10-17T14:34:29.298Z,7.70
2017-10-17T14:36:57.574Z,8.43
2017-10-17T14:39:25.864Z,8.07
2017-10-17T14:41:53.364Z,10.07
2017-10-17T14:44:20.931Z,7.17
2017-10-17T14:46:48.419Z,5.97
2017-10-17T14:49:16.676Z,9.40
2017-10-17T14:51:44.992Z,10.40
2017-10-17T14:54:12.500Z,11.23
2017-10-17T14:56:39.994Z,9.97
2017-10-17T14:59:07.573Z,15.37
2017-10-17T15:01:35.069Z,8.47
2017-10-17T15:04:02.595Z,7.37
2017-10-17T15:06:30.086Z,8.60
2017-10-17T15:08:57.597Z,10.83
2017-10-17T15:11:25.133Z,7.23
2017-10-17T15:13:53.400Z,7.73
2017-10-17T15:16:21.698Z,7.33
2017-10-17T15:18:49.203Z,8.80
2017-10-17T15:21:16.739Z,9.50
2017-10-17T15:23:44.249Z,9.90
2017-10-17T15:26:12.537Z,10.93
2017-10-17T15:28:40.042Z,14.90
2017-10-17T15:31:07.565Z,9.90
2017-10-17T15:33:35.096Z,10.33
2017-10-17T15:36:03.369Z,8.10
2017-10-17T15:38:31.651Z,7.93
2017-10-17T15:40:59.930Z,8.83
2017-10-17T15:43:27.457Z,7.70
2017-10-17T15:45:54.985Z,10.60
2017-10-17T15:48:22.704Z,11.10
2017-10-17T15:50:50.983Z,11.10
2017-10-17T15:53:19.278Z,8.37
2017-10-17T15:55:46.816Z,8.80
2017-10-17T15:58:15.094Z,8.87
2017-10-17T16:00:43.366Z,9.00
2017-10-17T16:03:11.665Z,8.17
2017-10-17T16:05:39.175Z,9.20
2017-10-17T16:08:06.688Z,11.77
2017-10-17T16:10:34.184Z,9.63
2017-10-17T16:13:01.708Z,11.47
2017-10-17T16:15:29.218Z,10.43
2017-10-17T16:17:57.509Z,10.73
2017-10-17T16:20:25.765Z,11.03
2017-10-17T16:22:54.069Z,14.13
2017-10-17T16:25:21.615Z,11.53
2017-10-17T16:27:50.012Z,11.17
2017-10-17T16:30:17.514Z,13.07
2017-10-17T16:32:45.016Z,10.30
2017-10-17T16:35:12.554Z,9.23
2017-10-17T16:37:40.880Z,19.43
2017-10-17T16:40:08.415Z,10.70
2017-10-17T16:42:35.996Z,10.37
2017-10-17T16:45:03.559Z,10.43
2017-10-17T16:47:31.069Z,11.03
2017-10-17T16:49:59.352Z,11.47
2017-10-17T16:52:26.901Z,12.53
2017-10-17T16:54:55.193Z,13.33
2017-10-17T16:57:22.731Z,11.70
2017-10-17T16:59:50.260Z,10.70
2017-10-17T17:02:17.799Z,11.27
2017-10-17T17:04:45.310Z,11.07
2017-10-17T17:07:12.883Z,11.40
2017-10-17T17:09:40.428Z,12.40
2017-10-17T17:12:08.714Z,12.53
2017-10-17T17:14:36.238Z,12.43
2017-10-17T17:17:03.792Z,13.93
2017-10-17T17:19:31.336Z,17.10
2017-10-17T17:21:58.905Z,15.17
2017-10-17T17:24:26.408Z,14.43
2017-10-17T17:26:53.930Z,19.50
2017-10-17T17:29:21.465Z,15.70
2017-10-17T17:31:48.979Z,17.40
2017-10-17T17:34:16.494Z,15.80
2017-10-17T17:36:44.039Z,16.33
2017-10-17T17:39:11.546Z,13.37
2017-10-17T17:41:39.102Z,16.60
2017-10-17T17:44:06.623Z,15.70
2017-10-17T17:46:34.168Z,16.50
2017-10-17T17:49:01.704Z,19.63
2017-10-17T17:51:29.228Z,20.07
2017-10-17T17:53:57.512Z,16.60
2017-10-17T17:56:25.022Z,17.20
2017-10-17T17:58:52.546Z,14.50
2017-10-17T18:01:20.072Z,16.37
2017-10-17T18:03:48.384Z,14.07
2017-10-17T18:06:15.890Z,11.30
2017-10-17T18:08:43.450Z,13.10
2017-10-17T18:11:10.970Z,14.97
2017-10-17T18:13:38.522Z,14.70
2017-10-17T18:16:06.068Z,13.17
2017-10-17T18:18:33.601Z,17.47
2017-10-17T18:21:01.894Z,13.27
2017-10-17T18:23:29.441Z,20.23
2017-10-17T18:25:57.724Z,14.67
2017-10-17T18:28:25.269Z,14.50
2017-10-17T18:30:53.545Z,17.33
2017-10-17T18:33:21.855Z,14.40
2017-10-17T18:35:49.397Z,14.77
2017-10-17T18:38:16.934Z,15.87
2017-10-17T18:40:46.199Z,15.47
2017-10-17T18:43:13.724Z,16.13
2017-10-17T18:45:41.276Z,19.60
2017-10-17T18:48:08.800Z,14.53
2017-10-17T18:50:37.121Z,15.50
2017-10-17T18:53:04.654Z,19.37
2017-10-17T18:55:32.212Z,15.13
2017-10-17T18:57:59.736Z,17.97
2017-10-17T19:00:27.295Z,18.03
2017-10-17T19:02:54.800Z,16.63
2017-10-17T19:05:22.320Z,17.37
2017-10-17T19:07:50.636Z,20.77
2017-10-17T19:10:18.152Z,21.37
2017-10-17T19:12:46.471Z,15.73
2017-10-17T19:15:13.983Z,18.23
2017-10-17T19:17:41.525Z,20.37
2017-10-17T19:20:09.081Z,16.53
2017-10-17T19:22:37.420Z,18.93
2017-10-17T19:25:04.979Z,19.30
2017-10-17T19:27:32.515Z,20.73
2017-10-17T19:30:00.838Z,19.00
2017-10-17T19:32:28.368Z,17.10
2017-10-17T19:34:57.237Z,17.83
2017-10-17T19:37:25.509Z,19.70
2017-10-17T19:39:54.022Z,18.47
2017-10-17T19:42:21.552Z,17.13
2017-10-17T19:44:49.823Z,16.67
2017-10-17T19:47:18.137Z,19.43
2017-10-17T19:49:45.701Z,15.60
2017-10-17T19:52:13.222Z,15.00
2017-10-17T19:54:40.757Z,17.60
2017-10-17T19:57:08.295Z,15.90
2017-10-17T19:59:35.825Z,16.57
2017-10-17T20:02:03.358Z,21.10
2017-10-17T20:04:31.102Z,19.40
2017-10-17T20:06:59.397Z,20.33
2017-10-17T20:09:26.940Z,18.77
2017-10-17T20:11:55.254Z,15.97
2017-10-17T20:14:22.778Z,17.63
2017-10-17T20:16:51.084Z,20.13
2017-10-17T20:19:18.601Z,16.47
2017-10-17T20:21:46.920Z,15.47
2017-10-17T20:24:14.447Z,23.33
2017-10-17T20:26:41.984Z,15.90
2017-10-17T20:29:09.527Z,20.80
2017-10-17T20:31:37.057Z,21.23
2017-10-17T20:34:04.592Z,12.90
2017-10-17T20:36:32.101Z,21.97
2017-10-17T20:38:59.632Z,21.50
2017-10-17T20:41:27.155Z,20.33
2017-10-17T20:43:54.722Z,20.33
2017-10-17T20:46:22.245Z,19.03
2017-10-17T20:48:49.772Z,18.73
2017-10-17T20:51:17.301Z,17.53
2017-10-17T20:53:44.824Z,16.77
2017-10-17T20:56:13.129Z,18.27
2017-10-17T20:58:40.666Z,24.53
2017-10-17T21:01:08.953Z,18.37
2017-10-17T21:03:36.472Z,19.73
2017-10-17T21:06:03.986Z,21.20
2017-10-17T21:08:31.543Z,24.20
2017-10-17T21:10:59.059Z,20.87
2017-10-17T21:13:26.605Z,22.70
2017-10-17T21:15:54.125Z,19.93
2017-10-17T21:18:21.654Z,18.07
2017-10-17T21:20:49.944Z,19.43
2017-10-17T21:23:17.464Z,20.70
2017-10-17T21:25:45.065Z,19.80
2017-10-17T21:28:12.571Z,19.73
2017-10-17T21:30:40.100Z,18.30
2017-10-17T21:33:07.621Z,21.00
2017-10-17T21:35:35.907Z,25.10
2017-10-17T21:38:03.416Z,19.70
2017-10-17T21:40:30.946Z,20.80
2017-10-17T21:42:58.458Z,20.33
2017-10-17T21:45:26.757Z,19.67
2017-10-17T21:47:54.268Z,22.33
2017-10-17T21:50:22.614Z,20.37
2017-10-17T21:52:50.154Z,18.60
2017-10-17T21:55:17.660Z,20.57
2017-10-17T21:57:45.183Z,20.40
2017-10-17T22:00:12.684Z,20.23
2017-10-17T22:02:40.974Z,19.37
2017-10-17T22:05:09.277Z,19.40
2017-10-17T22:07:36.780Z,19.77
2017-10-17T22:10:05.089Z,23.10
2017-10-17T22:12:32.601Z,18.03
2017-10-17T22:15:00.130Z,18.40
2017-10-17T22:17:27.647Z,20.57
2017-10-17T22:19:55.175Z,16.67
2017-10-17T22:22:22.936Z,19.70
2017-10-17T22:24:50.438Z,22.50
2017-10-17T22:27:18.734Z,20.20
2017-10-17T22:29:46.247Z,22.00
2017-10-17T22:32:13.775Z,19.37
2017-10-17T22:34:41.283Z,19.77
2017-10-17T22:37:09.559Z,24.13
2017-10-17T22:39:37.847Z,21.03
2017-10-17T22:42:05.365Z,23.67
2017-10-17T22:44:34.415Z,17.77
2017-10-17T22:47:01.920Z,22.70
2017-10-17T22:49:29.574Z,17.57
2017-10-17T22:51:57.107Z,18.03
2017-10-17T22:54:24.630Z,17.77
2017-10-17T22:56:52.928Z,19.67
2017-10-17T22:59:20.482Z,19.10
2017-10-17T23:01:48.069Z,20.40
2017-10-17T23:04:15.612Z,20.10
2017-10-17T23:06:43.101Z,19.10
2017-10-17T23:09:10.632Z,18.77
2017-10-17T23:11:38.146Z,17.40
2017-10-17T23:14:06.437Z,18.27
2017-10-17T23:16:34.012Z,18.90
2017-10-17T23:19:13.297Z,17.00
2017-10-17T23:21:40.825Z,18.63
2017-10-17T23:24:08.364Z,17.37
2017-10-17T23:26:35.860Z,17.87
2017-10-17T23:29:03.385Z,15.10
2017-10-17T23:31:30.925Z,19.03
2017-10-17T23:33:58.428Z,16.87
2017-10-17T23:36:25.957Z,18.33
2017-10-17T23:38:53.461Z,16.57
2017-10-17T23:41:20.996Z,17.30
2017-10-17T23:43:48.495Z,17.47
2017-10-17T23:46:16.002Z,17.70
2017-10-17T23:48:43.533Z,16.43
2017-10-17T23:51:11.056Z,16.50
2017-10-17T23:53:39.353Z,18.60
2017-10-17T23:56:06.849Z,15.77
2017-10-17T23:58:34.364Z,16.60
